EGYM

RAF Marham Airport

Marham, United Kingdom
METAR EGYM 190850Z 16006KT CAVOK 21/13 Q1019 BLU NOSIG
Observed Flight Rules
Jul-19 @ 08:50 UTC (50 minutes ago) Visual Flight Rules
Wind Visibility Clouds
160° at 6 knots 10,000+ meters
  • Clear skies
Temperatures Readings
Current 21°C / 70°F
Dewpoint 13°C / 55°F
Humidity 60%
Altimeter 30.09" Hg
Pressure 1019 hPa
Elevation 23
METAR EGYM 190850Z 16006KT CAVOK 21/13 Q1019 BLU NOSIG
Observed Flight Rules
Jul-19 @ 08:50 UTC
(50 minutes ago)
VFR
Wind Visibility
160° at 6 knots 10,000+ meters
Clouds
  • Clear skies
Temperature Dewpoint
21°C / 70°F 13°C / 55°F
Humidity Altimeter Pressure
60% 30.09" Hg 1019 hPa